Kinsale, Virginia
Current Conditions -  °F | °C
As of 9:53 PM on Friday 21 Nov 2014 (Local Time) from KNUI Reporting Station
Clear Clear  
Wind Chill: 24°   Ceiling: Unl
Heat Index: 24°   Visibility: 10mi
Dew Point: 11°   Wind: 0mph
Humidity: 57%   Direction: NA
Pressure: 30.56"   Gusts: NA
Location:  38.03°N, 76.58°W
Report Text: KNUI 220253Z AUTO 00000KT 10SM CLR M04/M12 A3056 RMK AO2 SLP348 T10441117 51007
Loading
Personal Weather Stations






























Interactive Weather Map New forecast layout! Learn more

10-Day Weather Forecast

Advertisements
Track Severe Weather on mobile